Time;durP1;ratioP1;P1;durP2;ratioP2;P2;SDS_P1;SDS_P2;PMS_P1;PMS_P2;Temp;Humidity;BMP_temperature;BMP_pressure;BME280_temperature;BME280_humidity;BME280_pressure;Samples;Min_cycle;Max_cycle;Signal;HPM_P1;HPM_P2
2022/03/01 16:50:41;;;;;;;33.00;4.80;;;26.40;65.20;;;;;;5052342;28;20922;-74
2022/03/01 16:53:07;;;;;;;12.73;2.92;;;26.20;66.50;;;;;;5050291;28;20025;-72
2022/03/01 16:55:34;;;;;;;13.80;9.18;;;26.20;66.60;;;;;;5055224;28;20051;-72
2022/03/01 16:58:01;;;;;;;14.35;8.32;;;26.20;66.40;;;;;;5046508;28;20424;-74
2022/03/01 17:00:32;;;;;;;17.40;3.22;;;26.30;66.20;;;;;;5038356;28;20445;-74
2022/03/01 17:03:03;;;;;;;237.05;20.25;;;26.30;65.80;;;;;;5041390;28;20025;-75
2022/03/01 17:05:31;;;;;;;114.55;10.73;;;26.30;65.80;;;;;;5042229;28;20033;-76
2022/03/01 17:07:58;;;;;;;87.03;8.63;;;26.30;66.20;;;;;;5042890;28;20044;-74
2022/03/01 17:10:26;;;;;;;58.88;5.60;;;26.30;66.70;;;;;;5044198;28;20029;-75
2022/03/01 17:12:53;;;;;;;74.60;7.03;;;26.20;66.60;;;;;;5041498;28;20036;-76
2022/03/01 17:15:22;;;;;;;43.67;5.90;;;26.30;66.30;;;;;;5042964;28;20051;-75
2022/03/01 17:17:52;;;;;;;19.27;3.03;;;26.30;66.10;;;;;;5042049;28;20094;-72
2022/03/01 17:20:19;;;;;;;67.70;8.68;;;26.30;65.80;;;;;;5044300;28;20017;-76
2022/03/01 17:22:45;;;;;;;68.85;7.35;;;26.20;65.90;;;;;;5042430;28;20477;-75
2022/03/01 17:25:12;;;;;;;35.55;5.93;;;26.20;66.40;;;;;;5043208;28;20025;-75
2022/03/01 17:27:40;;;;;;;26.40;3.92;;;26.20;66.50;;;;;;5042002;28;20052;-77
2022/03/01 17:30:09;;;;;;;48.85;6.05;;;26.20;66.90;;;;;;5041691;28;20448;-76
2022/03/01 17:32:36;;;;;;;46.58;5.28;;;26.30;67.10;;;;;;5038298;28;20485;-74
2022/03/01 17:35:03;;;;;;;47.22;5.65;;;26.20;67.00;;;;;;5039168;28;20028;-73
2022/03/01 17:37:30;;;;;;;29.70;4.85;;;26.20;67.00;;;;;;5042210;28;20396;-75
2022/03/01 17:39:57;;;;;;;32.35;4.47;;;26.20;67.10;;;;;;5040962;28;20043;-76
2022/03/01 17:42:24;;;;;;;36.15;6.75;;;26.20;67.20;;;;;;5042730;28;20108;-76
2022/03/01 17:44:51;;;;;;;29.23;4.20;;;26.20;67.70;;;;;;5040900;28;20388;-77
2022/03/01 17:47:19;;;;;;;21.92;4.18;;;26.20;67.50;;;;;;5039445;28;20018;-77
2022/03/01 17:49:45;;;;;;;12.20;2.70;;;26.20;67.00;;;;;;5041777;28;20041;-76
2022/03/01 17:52:11;;;;;;;15.98;3.88;;;26.20;66.80;;;;;;5039627;28;20051;-77
2022/03/01 17:54:39;;;;;;;11.80;3.42;;;26.20;66.30;;;;;;5042706;28;21077;-78
2022/03/01 17:57:05;;;;;;;6.88;2.90;;;26.20;66.10;;;;;;5041973;28;20013;-76
2022/03/01 17:59:32;;;;;;;11.90;3.22;;;26.20;65.90;;;;;;5039342;28;20396;-76
2022/03/01 18:01:58;;;;;;;14.65;3.40;;;26.20;65.80;;;;;;5023795;28;20033;-77
2022/03/01 18:04:25;;;;;;;12.45;2.70;;;26.20;65.80;;;;;;5025297;28;20014;-78
2022/03/01 18:06:51;;;;;;;5.97;2.80;;;26.30;66.00;;;;;;5025984;28;20075;-75
2022/03/01 18:09:18;;;;;;;4.72;2.30;;;26.30;66.10;;;;;;5028001;28;20034;-77
2022/03/01 18:11:44;;;;;;;13.13;3.35;;;26.30;65.90;;;;;;5029741;28;20022;-76
2022/03/01 18:14:11;;;;;;;62.78;7.00;;;26.30;65.80;;;;;;5023193;28;20029;-76
2022/03/01 18:16:38;;;;;;;51.55;7.72;;;26.30;65.90;;;;;;5028330;28;20045;-74
2022/03/01 18:19:05;;;;;;;18.17;4.32;;;26.30;66.00;;;;;;5027857;28;20914;-75
2022/03/01 18:21:31;;;;;;;16.92;3.60;;;26.20;65.90;;;;;;5025389;28;20025;-73
2022/03/01 18:23:59;;;;;;;7.35;2.33;;;26.30;66.00;;;;;;5031913;28;20053;-74
2022/03/01 18:26:26;;;;;;;11.32;3.25;;;26.20;65.80;;;;;;5026578;28;20275;-74
2022/03/01 18:28:52;;;;;;;8.30;2.45;;;26.20;65.70;;;;;;5023978;28;20428;-75
2022/03/01 18:31:20;;;;;;;5.38;2.92;;;26.20;66.30;;;;;;5025116;28;20370;-74
2022/03/01 18:33:47;;;;;;;6.50;3.38;;;26.20;65.50;;;;;;5027228;28;20017;-74
2022/03/01 18:36:15;;;;;;;6.18;2.30;;;26.20;65.60;;;;;;5025934;28;20063;-75
2022/03/01 18:38:42;;;;;;;7.50;3.10;;;26.20;65.60;;;;;;5024367;28;20024;-74
2022/03/01 18:41:09;;;;;;;8.50;4.57;;;26.20;65.70;;;;;;5026648;28;20075;-73
2022/03/01 18:43:35;;;;;;;21.67;17.40;;;26.20;65.70;;;;;;5025009;28;20029;-75
2022/03/01 18:46:03;;;;;;;29.77;26.13;;;26.10;65.70;;;;;;5028402;28;20469;-74
2022/03/01 18:48:29;;;;;;;21.90;18.40;;;26.10;65.80;;;;;;5026397;28;20026;-74
2022/03/01 18:50:56;;;;;;;12.63;9.60;;;26.10;65.80;;;;;;5026986;28;20481;-75
2022/03/01 18:53:22;;;;;;;13.52;6.13;;;26.10;65.90;;;;;;5023310;28;20029;-73
2022/03/01 18:55:51;;;;;;;4.85;3.40;;;26.10;66.10;;;;;;5039288;28;20488;-74
2022/03/01 18:58:17;;;;;;;10.13;3.97;;;26.00;66.10;;;;;;5024360;28;20053;-73
2022/03/01 19:00:44;;;;;;;3.72;3.08;;;26.00;66.20;;;;;;5025798;28;20021;-73
2022/03/01 19:03:11;;;;;;;8.82;3.15;;;26.00;66.40;;;;;;5026224;28;20040;-73
2022/03/01 19:05:40;;;;;;;9.07;3.10;;;26.00;66.50;;;;;;5024330;28;20025;-74
2022/03/01 19:08:07;;;;;;;7.85;2.90;;;26.00;66.60;;;;;;5027158;28;20024;-73
2022/03/01 19:10:35;;;;;;;10.35;3.38;;;26.00;66.60;;;;;;5023876;28;20033;-73
2022/03/01 19:13:02;;;;;;;9.90;3.30;;;26.00;66.70;;;;;;5024762;28;20029;-75
2022/03/01 19:15:28;;;;;;;7.72;3.45;;;26.00;66.70;;;;;;5027196;28;20473;-74
2022/03/01 19:17:55;;;;;;;8.18;3.58;;;26.00;66.80;;;;;;5024787;28;20033;-74
2022/03/01 19:20:22;;;;;;;13.57;4.50;;;26.00;66.80;;;;;;5026257;28;20032;-74
2022/03/01 19:22:49;;;;;;;10.80;3.67;;;26.00;66.80;;;;;;5023797;28;20362;-74
2022/03/01 19:25:15;;;;;;;9.32;3.78;;;26.00;66.90;;;;;;5025353;28;20022;-75
2022/03/01 19:27:43;;;;;;;10.30;4.35;;;26.00;67.00;;;;;;5023160;28;20491;-75
2022/03/01 19:30:12;;;;;;;13.52;3.88;;;26.00;67.00;;;;;;5038946;28;20049;-74
2022/03/01 19:32:41;;;;;;;10.60;3.35;;;26.00;67.70;;;;;;5029246;28;20052;-74
2022/03/01 19:35:10;;;;;;;10.52;3.03;;;26.00;67.00;;;;;;5023595;28;20118;-73
2022/03/01 19:37:37;;;;;;;12.77;4.13;;;25.90;67.10;;;;;;5024072;28;20021;-73
2022/03/01 19:40:09;;;;;;;45.67;32.35;;;25.90;67.10;;;;;;5026748;28;20017;-73
2022/03/01 19:42:39;;;;;;;41.35;34.13;;;25.90;67.30;;;;;;5029399;28;20115;-74
2022/03/01 19:45:14;;;;;;;26.45;20.15;;;25.90;67.40;;;;;;5023889;28;20112;-74
2022/03/01 19:47:43;;;;;;;14.60;9.77;;;25.80;67.50;;;;;;5024370;28;20026;-74
2022/03/01 19:50:15;;;;;;;13.48;7.10;;;25.80;67.60;;;;;;5023222;28;20499;-74
2022/03/01 19:52:43;;;;;;;7.63;4.28;;;25.80;67.60;;;;;;5025010;28;20025;-74
2022/03/01 19:55:12;;;;;;;8.30;3.13;;;25.80;67.60;;;;;;5024548;28;20040;-74
2022/03/01 19:57:40;;;;;;;9.98;3.42;;;25.80;67.80;;;;;;5024190;28;20631;-74
2022/03/01 20:00:21;;;;;;;7.85;2.40;;;25.80;68.20;;;;;;5023483;28;20029;-73
2022/03/01 20:02:49;;;;;;;6.82;3.33;;;25.80;68.30;;;;;;5026713;28;20022;-74
2022/03/01 20:05:15;;;;;;;15.93;4.75;;;25.70;68.40;;;;;;5018840;28;20507;-73
2022/03/01 20:07:42;;;;;;;14.55;3.70;;;25.70;68.50;;;;;;5023771;28;20025;-73
2022/03/01 20:10:09;;;;;;;10.65;3.40;;;25.70;68.60;;;;;;5024621;28;20126;-74
2022/03/01 20:12:37;;;;;;;9.68;3.83;;;25.70;68.80;;;;;;5026038;28;20026;-72
2022/03/01 20:15:05;;;;;;;8.85;3.42;;;25.70;69.00;;;;;;5024821;28;20060;-73
2022/03/01 20:17:32;;;;;;;8.88;3.42;;;25.70;69.10;;;;;;5025444;28;20033;-73
2022/03/01 20:20:00;;;;;;;8.98;3.55;;;25.70;69.10;;;;;;5025645;28;20444;-74
2022/03/01 20:22:26;;;;;;;10.73;3.42;;;25.60;69.10;;;;;;5027943;28;20482;-74
2022/03/01 20:24:53;;;;;;;14.05;3.55;;;25.60;69.00;;;;;;5022296;28;20025;-75
2022/03/01 20:27:19;;;;;;;6.68;3.00;;;25.60;69.20;;;;;;5026935;28;20013;-73
2022/03/01 20:29:46;;;;;;;11.38;3.20;;;25.60;69.40;;;;;;5025821;28;20120;-73
2022/03/01 20:32:12;;;;;;;12.27;3.22;;;25.60;69.60;;;;;;5023679;28;20075;-73
2022/03/01 20:34:39;;;;;;;8.10;2.30;;;25.60;69.60;;;;;;5027228;28;20108;-73
2022/03/01 20:37:05;;;;;;;76.90;10.20;;;25.60;69.60;;;;;;5025548;28;20158;-72
2022/03/01 20:39:33;;;;;;;47.53;7.13;;;25.50;69.80;;;;;;5025151;28;20627;-72
2022/03/01 20:42:00;;;;;;;27.20;7.32;;;25.50;70.20;;;;;;5023873;28;20030;-73
2022/03/01 20:44:27;;;;;;;25.13;6.55;;;25.50;70.50;;;;;;5024565;28;20480;-75
2022/03/01 20:46:56;;;;;;;13.48;4.28;;;25.50;70.70;;;;;;5026304;28;20029;-73
2022/03/01 20:49:24;;;;;;;11.25;4.25;;;25.50;70.80;;;;;;5023997;28;20128;-71
2022/03/01 20:51:52;;;;;;;11.88;4.85;;;25.50;70.80;;;;;;5025220;28;20024;-72
2022/03/01 20:54:19;;;;;;;11.00;4.13;;;25.50;70.80;;;;;;5023191;28;20030;-74
2022/03/01 20:56:46;;;;;;;9.02;3.00;;;25.50;70.80;;;;;;5027200;28;20417;-72
2022/03/01 20:59:14;;;;;;;13.45;4.07;;;25.40;70.70;;;;;;5026966;28;20050;-74
2022/03/01 21:01:41;;;;;;;9.52;3.30;;;25.40;70.60;;;;;;5023917;28;20496;-73
2022/03/01 21:04:08;;;;;;;13.95;3.97;;;25.40;70.60;;;;;;5023961;28;20036;-72
2022/03/01 21:06:34;;;;;;;11.30;3.72;;;25.40;70.60;;;;;;5023100;28;20017;-73
2022/03/01 21:09:01;;;;;;;11.32;5.57;;;25.40;70.60;;;;;;5024356;28;20396;-73
2022/03/01 21:11:27;;;;;;;14.60;4.07;;;25.40;70.70;;;;;;5025634;28;20536;-72
2022/03/01 21:13:54;;;;;;;16.98;4.43;;;25.40;70.70;;;;;;5026450;28;20052;-72
2022/03/01 21:16:23;;;;;;;10.13;3.58;;;25.40;70.70;;;;;;5023082;28;20484;-73
2022/03/01 21:18:50;;;;;;;14.85;4.18;;;25.40;70.70;;;;;;5023776;28;20026;-73
2022/03/01 21:21:17;;;;;;;8.73;3.28;;;25.30;70.60;;;;;;5024266;28;20025;-73
2022/03/01 21:23:43;;;;;;;12.70;4.13;;;25.30;70.60;;;;;;5026611;28;20049;-73
2022/03/01 21:26:11;;;;;;;11.65;3.95;;;25.30;70.60;;;;;;5024395;28;20067;-74
2022/03/01 21:28:39;;;;;;;11.48;3.53;;;25.30;70.60;;;;;;5024645;28;20029;-73
2022/03/01 21:31:05;;;;;;;15.65;3.80;;;25.30;70.70;;;;;;5025822;28;20018;-72
2022/03/01 21:33:32;;;;;;;8.15;3.00;;;25.30;70.70;;;;;;5023326;28;20088;-72
2022/03/01 21:35:58;;;;;;;6.60;3.38;;;25.30;70.70;;;;;;5026774;28;21100;-73
2022/03/01 21:38:25;;;;;;;11.85;3.03;;;25.20;70.60;;;;;;5025323;28;20014;-73
2022/03/01 21:40:52;;;;;;;10.35;3.20;;;25.30;70.60;;;;;;5030561;28;20056;-72
2022/03/01 21:43:20;;;;;;;8.88;3.10;;;25.20;70.60;;;;;;5027720;28;20421;-73
2022/03/01 21:45:48;;;;;;;13.15;3.13;;;25.30;70.70;;;;;;5025221;28;20392;-73
2022/03/01 21:48:16;;;;;;;6.55;3.35;;;25.20;70.60;;;;;;5029059;28;20034;-73
2022/03/01 21:50:43;;;;;;;12.52;3.90;;;25.20;70.60;;;;;;5026048;28;20108;-73
2022/03/01 21:53:11;;;;;;;9.00;2.95;;;25.20;70.70;;;;;;5030023;28;20500;-73
2022/03/01 21:55:38;;;;;;;7.38;2.75;;;25.20;70.70;;;;;;5027316;28;21140;-73
2022/03/01 21:58:05;;;;;;;7.32;2.53;;;25.20;70.60;;;;;;5028884;28;20018;-73
2022/03/01 22:00:33;;;;;;;6.25;2.78;;;25.20;70.60;;;;;;5026099;28;20103;-72
2022/03/01 22:03:00;;;;;;;7.15;3.03;;;25.20;70.70;;;;;;5028153;28;20146;-73
2022/03/01 22:05:27;;;;;;;10.32;3.20;;;25.20;70.70;;;;;;5030705;28;20049;-72
2022/03/01 22:07:55;;;;;;;8.75;2.78;;;25.20;70.70;;;;;;5023944;28;20025;-72
2022/03/01 22:10:21;;;;;;;7.43;2.63;;;25.20;70.80;;;;;;5030764;28;20148;-73
2022/03/01 22:12:50;;;;;;;6.00;2.25;;;25.20;70.70;;;;;;5027949;28;20029;-74
2022/03/01 22:15:18;;;;;;;9.50;2.25;;;25.20;70.80;;;;;;5025169;28;20488;-72
2022/03/01 22:17:48;;;;;;;9.55;3.50;;;25.20;70.80;;;;;;5028459;28;20095;-74
2022/03/01 22:20:16;;;;;;;8.25;2.33;;;25.20;70.80;;;;;;5028081;28;20021;-73
2022/03/01 22:22:42;;;;;;;6.97;2.30;;;25.10;70.70;;;;;;5028008;28;20032;-73
2022/03/01 22:25:10;;;;;;;9.75;2.50;;;25.20;71.40;;;;;;5029156;28;20021;-72
2022/03/01 22:27:37;;;;;;;7.13;2.13;;;25.10;70.70;;;;;;5028943;28;20497;-73
2022/03/01 22:30:10;;;;;;;6.57;2.22;;;25.10;70.60;;;;;;5025343;28;20038;-72
2022/03/01 22:32:39;;;;;;;10.52;3.70;;;25.10;70.70;;;;;;5028279;28;20025;-74
2022/03/01 22:35:06;;;;;;;7.82;2.25;;;25.10;70.80;;;;;;5027545;28;20027;-72
2022/03/01 22:37:33;;;;;;;7.38;2.53;;;25.10;70.80;;;;;;5028569;28;20033;-72
2022/03/01 22:39:59;;;;;;;11.18;3.67;;;25.10;70.90;;;;;;5029399;28;20022;-73
2022/03/01 22:42:26;;;;;;;7.28;2.33;;;25.10;71.00;;;;;;5035315;28;20034;-72
2022/03/01 22:44:53;;;;;;;11.35;2.75;;;25.10;71.10;;;;;;5041378;28;20020;-72
2022/03/01 22:47:20;;;;;;;9.25;2.83;;;25.10;71.20;;;;;;5039295;28;20029;-73
2022/03/01 22:49:46;;;;;;;10.35;2.38;;;25.10;71.20;;;;;;5038656;28;20503;-73
2022/03/01 22:52:13;;;;;;;9.70;2.60;;;25.10;71.30;;;;;;5033571;28;20033;-72
2022/03/01 22:54:40;;;;;;;8.27;2.65;;;25.10;71.30;;;;;;5038033;28;20371;-73
2022/03/01 22:57:06;;;;;;;7.43;2.53;;;25.10;71.40;;;;;;5034813;28;20148;-73
2022/03/01 22:59:33;;;;;;;7.13;2.33;;;25.10;71.40;;;;;;5037284;28;20032;-73
2022/03/01 23:02:00;;;;;;;9.70;3.65;;;25.10;71.60;;;;;;5034587;28;20489;-73
2022/03/01 23:04:26;;;;;;;5.57;2.03;;;25.10;71.60;;;;;;5030005;28;20044;-73
2022/03/01 23:09:37;;;;;;;5.18;2.08;;;25.10;71.80;;;;;;5032724;28;20415;-73
2022/03/01 23:12:04;;;;;;;6.78;2.17;;;25.10;72.00;;;;;;5037634;28;20060;-73
2022/03/01 23:14:31;;;;;;;7.75;2.90;;;25.10;72.00;;;;;;5036662;28;20033;-73
2022/03/01 23:16:57;;;;;;;6.28;2.53;;;25.10;72.10;;;;;;5032421;28;20033;-73
2022/03/01 23:19:24;;;;;;;5.90;2.47;;;25.10;72.10;;;;;;5033178;28;20022;-73
2022/03/01 23:21:50;;;;;;;10.52;4.22;;;25.10;72.10;;;;;;5031777;28;20112;-73
2022/03/01 23:24:17;;;;;;;4.93;2.20;;;25.00;72.00;;;;;;5032570;28;20032;-72
2022/03/01 23:26:43;;;;;;;12.10;2.60;;;25.00;71.90;;;;;;5036760;28;20014;-73
2022/03/01 23:29:10;;;;;;;13.18;3.65;;;25.00;71.60;;;;;;5036718;28;20083;-72
2022/03/01 23:31:36;;;;;;;10.70;2.90;;;25.00;71.50;;;;;;5038246;28;20048;-72
2022/03/01 23:34:03;;;;;;;12.48;2.65;;;25.00;71.20;;;;;;5032894;28;20136;-73
2022/03/01 23:36:29;;;;;;;7.57;2.45;;;25.00;71.10;;;;;;5037472;28;20021;-72
2022/03/01 23:38:56;;;;;;;5.80;2.40;;;25.00;71.20;;;;;;5033373;28;20492;-72
2022/03/01 23:41:22;;;;;;;6.85;2.20;;;25.00;71.10;;;;;;5037942;28;20013;-72
2022/03/01 23:43:49;;;;;;;8.27;2.10;;;24.90;71.00;;;;;;5034067;28;20067;-73
2022/03/01 23:46:15;;;;;;;4.35;1.98;;;24.90;71.20;;;;;;5040380;28;20430;-73
2022/03/01 23:48:42;;;;;;;4.05;1.60;;;24.90;71.30;;;;;;5033774;28;20040;-73
2022/03/01 23:51:08;;;;;;;7.15;1.85;;;24.90;71.40;;;;;;5037381;28;20029;-72
2022/03/01 23:53:36;;;;;;;23.52;2.55;;;24.80;71.40;;;;;;5034674;28;20130;-72
2022/03/01 23:56:04;;;;;;;6.20;2.13;;;24.80;71.50;;;;;;5035555;28;20017;-73
2022/03/01 23:58:31;;;;;;;6.15;2.20;;;24.80;71.50;;;;;;5036165;28;20021;-73
